sensor_id;sensor_type;location;lat;lon;timestamp;P1;durP1;ratioP1;P2;durP2;ratioP2
77136;SDS011;66102;48.542;-2.970;2023-04-03T00:01:12;10.15;;;2.47;;
77136;SDS011;66102;48.542;-2.970;2023-04-03T00:03:38;7.35;;;2.50;;
77136;SDS011;66102;48.542;-2.970;2023-04-03T00:06:04;9.10;;;2.78;;
77136;SDS011;66102;48.542;-2.970;2023-04-03T00:08:32;8.23;;;2.80;;
77136;SDS011;66102;48.542;-2.970;2023-04-03T00:10:58;7.68;;;2.78;;
77136;SDS011;66102;48.542;-2.970;2023-04-03T00:13:24;7.35;;;3.08;;
77136;SDS011;66102;48.542;-2.970;2023-04-03T00:15:50;7.38;;;2.75;;
77136;SDS011;66102;48.542;-2.970;2023-04-03T00:18:17;9.55;;;2.95;;
77136;SDS011;66102;48.542;-2.970;2023-04-03T00:20:43;7.88;;;2.90;;
77136;SDS011;66102;48.542;-2.970;2023-04-03T00:23:09;9.20;;;3.13;;
77136;SDS011;66102;48.542;-2.970;2023-04-03T00:25:36;8.50;;;3.30;;
77136;SDS011;66102;48.542;-2.970;2023-04-03T00:28:02;11.45;;;3.20;;
77136;SDS011;66102;48.542;-2.970;2023-04-03T00:30:28;8.43;;;3.33;;
77136;SDS011;66102;48.542;-2.970;2023-04-03T00:32:54;7.97;;;2.55;;
77136;SDS011;66102;48.542;-2.970;2023-04-03T00:35:21;7.10;;;2.63;;
77136;SDS011;66102;48.542;-2.970;2023-04-03T00:37:47;8.35;;;3.17;;
77136;SDS011;66102;48.542;-2.970;2023-04-03T00:40:14;6.75;;;3.47;;
77136;SDS011;66102;48.542;-2.970;2023-04-03T00:42:41;7.47;;;2.90;;
77136;SDS011;66102;48.542;-2.970;2023-04-03T00:47:38;9.38;;;3.22;;
77136;SDS011;66102;48.542;-2.970;2023-04-03T00:50:04;8.98;;;3.58;;
77136;SDS011;66102;48.542;-2.970;2023-04-03T00:52:30;9.50;;;3.15;;
77136;SDS011;66102;48.542;-2.970;2023-04-03T00:54:58;7.55;;;3.03;;
77136;SDS011;66102;48.542;-2.970;2023-04-03T00:57:26;9.82;;;2.75;;
77136;SDS011;66102;48.542;-2.970;2023-04-03T00:59:55;6.85;;;2.72;;
77136;SDS011;66102;48.542;-2.970;2023-04-03T01:02:23;8.75;;;2.72;;
77136;SDS011;66102;48.542;-2.970;2023-04-03T01:04:49;9.00;;;2.47;;
77136;SDS011;66102;48.542;-2.970;2023-04-03T01:07:22;8.57;;;2.92;;
77136;SDS011;66102;48.542;-2.970;2023-04-03T01:09:50;7.60;;;2.80;;
77136;SDS011;66102;48.542;-2.970;2023-04-03T01:14:43;12.45;;;3.08;;
77136;SDS011;66102;48.542;-2.970;2023-04-03T01:17:27;7.60;;;2.58;;
77136;SDS011;66102;48.542;-2.970;2023-04-03T01:22:33;10.38;;;2.45;;
77136;SDS011;66102;48.542;-2.970;2023-04-03T01:25:01;6.82;;;2.40;;
77136;SDS011;66102;48.542;-2.970;2023-04-03T01:27:28;8.43;;;2.75;;
77136;SDS011;66102;48.542;-2.970;2023-04-03T01:29:54;11.50;;;2.80;;
77136;SDS011;66102;48.542;-2.970;2023-04-03T01:32:20;9.45;;;2.38;;
77136;SDS011;66102;48.542;-2.970;2023-04-03T01:34:46;9.55;;;2.75;;
77136;SDS011;66102;48.542;-2.970;2023-04-03T01:37:12;7.57;;;2.38;;
77136;SDS011;66102;48.542;-2.970;2023-04-03T01:39:38;9.20;;;3.15;;
77136;SDS011;66102;48.542;-2.970;2023-04-03T01:42:04;8.35;;;3.03;;
77136;SDS011;66102;48.542;-2.970;2023-04-03T01:44:30;10.88;;;3.40;;
77136;SDS011;66102;48.542;-2.970;2023-04-03T01:46:56;7.40;;;2.85;;
77136;SDS011;66102;48.542;-2.970;2023-04-03T01:49:22;10.07;;;3.35;;
77136;SDS011;66102;48.542;-2.970;2023-04-03T01:51:48;9.10;;;3.60;;
77136;SDS011;66102;48.542;-2.970;2023-04-03T01:54:14;10.57;;;3.50;;
77136;SDS011;66102;48.542;-2.970;2023-04-03T01:56:40;8.00;;;3.45;;
77136;SDS011;66102;48.542;-2.970;2023-04-03T01:59:07;9.95;;;3.47;;
77136;SDS011;66102;48.542;-2.970;2023-04-03T02:01:33;10.15;;;3.78;;
77136;SDS011;66102;48.542;-2.970;2023-04-03T02:03:59;7.93;;;2.85;;
77136;SDS011;66102;48.542;-2.970;2023-04-03T02:06:25;9.20;;;3.92;;
77136;SDS011;66102;48.542;-2.970;2023-04-03T02:08:51;8.30;;;3.05;;
77136;SDS011;66102;48.542;-2.970;2023-04-03T02:11:17;13.55;;;3.55;;
77136;SDS011;66102;48.542;-2.970;2023-04-03T02:13:43;6.00;;;3.25;;
77136;SDS011;66102;48.542;-2.970;2023-04-03T02:16:10;7.45;;;3.10;;
77136;SDS011;66102;48.542;-2.970;2023-04-03T02:18:36;8.93;;;3.60;;
77136;SDS011;66102;48.542;-2.970;2023-04-03T02:21:02;11.00;;;3.67;;
77136;SDS011;66102;48.542;-2.970;2023-04-03T02:23:28;8.68;;;3.42;;
77136;SDS011;66102;48.542;-2.970;2023-04-03T02:26:02;9.43;;;4.03;;
77136;SDS011;66102;48.542;-2.970;2023-04-03T02:28:28;11.05;;;3.70;;
77136;SDS011;66102;48.542;-2.970;2023-04-03T02:30:54;11.63;;;4.55;;
77136;SDS011;66102;48.542;-2.970;2023-04-03T02:33:20;9.00;;;3.58;;
77136;SDS011;66102;48.542;-2.970;2023-04-03T02:35:46;9.52;;;3.97;;
77136;SDS011;66102;48.542;-2.970;2023-04-03T02:38:18;13.70;;;4.75;;
77136;SDS011;66102;48.542;-2.970;2023-04-03T02:40:44;10.23;;;4.43;;
77136;SDS011;66102;48.542;-2.970;2023-04-03T02:43:10;7.90;;;3.80;;
77136;SDS011;66102;48.542;-2.970;2023-04-03T02:45:36;11.55;;;4.43;;
77136;SDS011;66102;48.542;-2.970;2023-04-03T02:48:03;10.00;;;4.20;;
77136;SDS011;66102;48.542;-2.970;2023-04-03T02:50:29;11.32;;;4.28;;
77136;SDS011;66102;48.542;-2.970;2023-04-03T02:52:55;10.75;;;3.63;;
77136;SDS011;66102;48.542;-2.970;2023-04-03T02:55:21;10.80;;;3.47;;
77136;SDS011;66102;48.542;-2.970;2023-04-03T02:57:47;9.68;;;3.80;;
77136;SDS011;66102;48.542;-2.970;2023-04-03T03:00:13;19.42;;;4.38;;
77136;SDS011;66102;48.542;-2.970;2023-04-03T03:02:40;10.73;;;4.70;;
77136;SDS011;66102;48.542;-2.970;2023-04-03T03:05:06;12.23;;;4.70;;
77136;SDS011;66102;48.542;-2.970;2023-04-03T03:07:32;11.18;;;3.80;;
77136;SDS011;66102;48.542;-2.970;2023-04-03T03:09:59;13.63;;;3.50;;
77136;SDS011;66102;48.542;-2.970;2023-04-03T03:12:25;16.25;;;4.15;;
77136;SDS011;66102;48.542;-2.970;2023-04-03T03:14:51;14.70;;;4.43;;
77136;SDS011;66102;48.542;-2.970;2023-04-03T03:17:17;9.48;;;3.97;;
77136;SDS011;66102;48.542;-2.970;2023-04-03T03:19:43;12.35;;;4.30;;
77136;SDS011;66102;48.542;-2.970;2023-04-03T03:22:10;12.18;;;3.63;;
77136;SDS011;66102;48.542;-2.970;2023-04-03T03:24:36;12.73;;;4.03;;
77136;SDS011;66102;48.542;-2.970;2023-04-03T03:27:03;11.48;;;3.50;;
77136;SDS011;66102;48.542;-2.970;2023-04-03T03:29:29;9.13;;;3.97;;
77136;SDS011;66102;48.542;-2.970;2023-04-03T03:31:55;10.95;;;3.90;;
77136;SDS011;66102;48.542;-2.970;2023-04-03T03:34:21;9.98;;;3.58;;
77136;SDS011;66102;48.542;-2.970;2023-04-03T03:36:47;13.25;;;3.45;;
77136;SDS011;66102;48.542;-2.970;2023-04-03T03:39:13;11.38;;;3.45;;
77136;SDS011;66102;48.542;-2.970;2023-04-03T03:41:39;8.93;;;3.38;;
77136;SDS011;66102;48.542;-2.970;2023-04-03T03:44:05;10.57;;;2.88;;
77136;SDS011;66102;48.542;-2.970;2023-04-03T03:46:31;8.43;;;3.20;;
77136;SDS011;66102;48.542;-2.970;2023-04-03T03:48:57;11.15;;;2.72;;
77136;SDS011;66102;48.542;-2.970;2023-04-03T03:51:24;14.63;;;4.03;;
77136;SDS011;66102;48.542;-2.970;2023-04-03T03:53:50;10.57;;;3.22;;
77136;SDS011;66102;48.542;-2.970;2023-04-03T03:56:16;11.30;;;3.10;;
77136;SDS011;66102;48.542;-2.970;2023-04-03T03:58:42;12.00;;;3.72;;
77136;SDS011;66102;48.542;-2.970;2023-04-03T04:01:08;10.40;;;3.47;;
77136;SDS011;66102;48.542;-2.970;2023-04-03T04:03:34;12.40;;;3.42;;
77136;SDS011;66102;48.542;-2.970;2023-04-03T04:06:00;15.75;;;4.32;;
77136;SDS011;66102;48.542;-2.970;2023-04-03T04:08:26;16.08;;;3.70;;
77136;SDS011;66102;48.542;-2.970;2023-04-03T04:10:52;10.48;;;3.40;;
77136;SDS011;66102;48.542;-2.970;2023-04-03T04:13:18;10.00;;;3.53;;
77136;SDS011;66102;48.542;-2.970;2023-04-03T04:15:44;12.00;;;3.65;;
77136;SDS011;66102;48.542;-2.970;2023-04-03T04:18:11;12.30;;;4.28;;
77136;SDS011;66102;48.542;-2.970;2023-04-03T04:20:37;10.65;;;2.97;;
77136;SDS011;66102;48.542;-2.970;2023-04-03T04:23:03;16.90;;;3.50;;
77136;SDS011;66102;48.542;-2.970;2023-04-03T04:25:29;12.95;;;3.58;;
77136;SDS011;66102;48.542;-2.970;2023-04-03T04:27:55;13.98;;;4.03;;
77136;SDS011;66102;48.542;-2.970;2023-04-03T04:30:21;8.98;;;3.05;;
77136;SDS011;66102;48.542;-2.970;2023-04-03T04:32:47;13.48;;;2.88;;
77136;SDS011;66102;48.542;-2.970;2023-04-03T04:35:13;8.98;;;2.25;;
77136;SDS011;66102;48.542;-2.970;2023-04-03T04:37:39;11.77;;;2.40;;
77136;SDS011;66102;48.542;-2.970;2023-04-03T04:40:05;11.20;;;2.78;;
77136;SDS011;66102;48.542;-2.970;2023-04-03T04:42:31;13.30;;;2.95;;
77136;SDS011;66102;48.542;-2.970;2023-04-03T04:44:57;12.27;;;2.97;;
77136;SDS011;66102;48.542;-2.970;2023-04-03T04:47:23;10.75;;;2.25;;
77136;SDS011;66102;48.542;-2.970;2023-04-03T04:49:49;11.80;;;2.30;;
77136;SDS011;66102;48.542;-2.970;2023-04-03T04:52:16;12.07;;;2.30;;
77136;SDS011;66102;48.542;-2.970;2023-04-03T04:54:42;10.23;;;2.30;;
77136;SDS011;66102;48.542;-2.970;2023-04-03T04:57:08;9.07;;;2.58;;
77136;SDS011;66102;48.542;-2.970;2023-04-03T04:59:35;11.43;;;2.83;;
77136;SDS011;66102;48.542;-2.970;2023-04-03T05:02:01;9.30;;;2.88;;
77136;SDS011;66102;48.542;-2.970;2023-04-03T05:04:27;13.98;;;2.60;;
77136;SDS011;66102;48.542;-2.970;2023-04-03T05:06:53;11.80;;;2.65;;
77136;SDS011;66102;48.542;-2.970;2023-04-03T05:09:19;7.47;;;2.20;;
77136;SDS011;66102;48.542;-2.970;2023-04-03T05:11:45;13.30;;;2.42;;
77136;SDS011;66102;48.542;-2.970;2023-04-03T05:14:12;11.38;;;3.15;;
77136;SDS011;66102;48.542;-2.970;2023-04-03T05:16:38;9.80;;;2.28;;
77136;SDS011;66102;48.542;-2.970;2023-04-03T05:19:04;11.10;;;2.38;;
77136;SDS011;66102;48.542;-2.970;2023-04-03T05:21:30;10.65;;;2.95;;
77136;SDS011;66102;48.542;-2.970;2023-04-03T05:23:57;9.10;;;2.40;;
77136;SDS011;66102;48.542;-2.970;2023-04-03T05:26:24;7.10;;;2.25;;
77136;SDS011;66102;48.542;-2.970;2023-04-03T05:28:51;10.77;;;2.10;;
77136;SDS011;66102;48.542;-2.970;2023-04-03T05:31:17;9.73;;;1.90;;
77136;SDS011;66102;48.542;-2.970;2023-04-03T05:36:28;7.35;;;1.70;;
77136;SDS011;66102;48.542;-2.970;2023-04-03T05:38:54;13.32;;;2.92;;
77136;SDS011;66102;48.542;-2.970;2023-04-03T05:41:21;6.60;;;1.83;;
77136;SDS011;66102;48.542;-2.970;2023-04-03T05:43:47;14.27;;;2.50;;
77136;SDS011;66102;48.542;-2.970;2023-04-03T05:46:14;11.50;;;1.83;;
77136;SDS011;66102;48.542;-2.970;2023-04-03T05:48:41;9.57;;;1.92;;
77136;SDS011;66102;48.542;-2.970;2023-04-03T05:51:09;7.82;;;2.00;;
77136;SDS011;66102;48.542;-2.970;2023-04-03T05:56:05;6.93;;;2.20;;
77136;SDS011;66102;48.542;-2.970;2023-04-03T05:58:31;9.80;;;2.20;;
77136;SDS011;66102;48.542;-2.970;2023-04-03T06:00:57;10.00;;;2.35;;
77136;SDS011;66102;48.542;-2.970;2023-04-03T06:03:23;7.55;;;1.65;;
77136;SDS011;66102;48.542;-2.970;2023-04-03T06:05:49;9.75;;;2.05;;
77136;SDS011;66102;48.542;-2.970;2023-04-03T06:08:15;7.93;;;2.00;;
77136;SDS011;66102;48.542;-2.970;2023-04-03T06:10:41;11.30;;;2.30;;
77136;SDS011;66102;48.542;-2.970;2023-04-03T06:13:07;15.18;;;2.92;;
77136;SDS011;66102;48.542;-2.970;2023-04-03T06:15:33;13.88;;;2.42;;
77136;SDS011;66102;48.542;-2.970;2023-04-03T06:17:59;16.80;;;2.70;;
77136;SDS011;66102;48.542;-2.970;2023-04-03T06:20:26;6.85;;;1.77;;
77136;SDS011;66102;48.542;-2.970;2023-04-03T06:22:52;6.13;;;1.63;;
77136;SDS011;66102;48.542;-2.970;2023-04-03T06:25:18;8.52;;;1.90;;
77136;SDS011;66102;48.542;-2.970;2023-04-03T06:27:44;10.63;;;2.50;;
77136;SDS011;66102;48.542;-2.970;2023-04-03T06:30:11;14.43;;;2.47;;
77136;SDS011;66102;48.542;-2.970;2023-04-03T06:32:37;9.60;;;1.90;;
77136;SDS011;66102;48.542;-2.970;2023-04-03T06:35:04;8.98;;;1.95;;
77136;SDS011;66102;48.542;-2.970;2023-04-03T06:37:30;13.00;;;3.30;;
77136;SDS011;66102;48.542;-2.970;2023-04-03T06:39:57;9.07;;;1.80;;
77136;SDS011;66102;48.542;-2.970;2023-04-03T06:42:25;12.82;;;2.15;;
77136;SDS011;66102;48.542;-2.970;2023-04-03T06:44:51;12.30;;;2.38;;
77136;SDS011;66102;48.542;-2.970;2023-04-03T06:47:17;7.40;;;2.10;;
77136;SDS011;66102;48.542;-2.970;2023-04-03T06:49:43;8.95;;;1.92;;
77136;SDS011;66102;48.542;-2.970;2023-04-03T06:52:10;9.55;;;1.80;;
77136;SDS011;66102;48.542;-2.970;2023-04-03T06:54:37;10.30;;;1.92;;
77136;SDS011;66102;48.542;-2.970;2023-04-03T06:57:03;7.88;;;1.83;;
77136;SDS011;66102;48.542;-2.970;2023-04-03T06:59:29;8.38;;;2.03;;
77136;SDS011;66102;48.542;-2.970;2023-04-03T07:01:55;9.88;;;1.75;;
77136;SDS011;66102;48.542;-2.970;2023-04-03T07:04:23;7.57;;;1.80;;
77136;SDS011;66102;48.542;-2.970;2023-04-03T07:06:49;9.23;;;2.03;;
77136;SDS011;66102;48.542;-2.970;2023-04-03T07:09:15;5.85;;;1.40;;
77136;SDS011;66102;48.542;-2.970;2023-04-03T07:11:41;7.35;;;1.98;;
77136;SDS011;66102;48.542;-2.970;2023-04-03T07:14:07;12.30;;;2.35;;
77136;SDS011;66102;48.542;-2.970;2023-04-03T07:16:34;10.57;;;1.80;;
77136;SDS011;66102;48.542;-2.970;2023-04-03T07:19:01;7.38;;;1.60;;
77136;SDS011;66102;48.542;-2.970;2023-04-03T07:21:27;14.52;;;2.38;;
77136;SDS011;66102;48.542;-2.970;2023-04-03T07:23:53;11.13;;;1.98;;
77136;SDS011;66102;48.542;-2.970;2023-04-03T07:26:19;10.20;;;1.92;;
77136;SDS011;66102;48.542;-2.970;2023-04-03T07:28:46;8.60;;;1.80;;
77136;SDS011;66102;48.542;-2.970;2023-04-03T07:31:13;8.95;;;1.90;;
77136;SDS011;66102;48.542;-2.970;2023-04-03T07:33:41;10.13;;;2.10;;
77136;SDS011;66102;48.542;-2.970;2023-04-03T07:36:08;8.15;;;2.08;;
77136;SDS011;66102;48.542;-2.970;2023-04-03T07:38:34;6.45;;;1.75;;
77136;SDS011;66102;48.542;-2.970;2023-04-03T07:41:01;7.57;;;2.20;;
77136;SDS011;66102;48.542;-2.970;2023-04-03T07:43:29;13.90;;;2.75;;
77136;SDS011;66102;48.542;-2.970;2023-04-03T07:45:55;6.70;;;2.15;;
77136;SDS011;66102;48.542;-2.970;2023-04-03T07:48:22;8.52;;;2.33;;
77136;SDS011;66102;48.542;-2.970;2023-04-03T07:50:48;7.57;;;2.45;;
77136;SDS011;66102;48.542;-2.970;2023-04-03T07:53:14;12.93;;;2.55;;
77136;SDS011;66102;48.542;-2.970;2023-04-03T07:55:40;7.15;;;2.88;;
77136;SDS011;66102;48.542;-2.970;2023-04-03T07:58:10;9.35;;;3.00;;
77136;SDS011;66102;48.542;-2.970;2023-04-03T08:00:36;7.88;;;2.60;;
77136;SDS011;66102;48.542;-2.970;2023-04-03T08:03:03;8.55;;;2.70;;
77136;SDS011;66102;48.542;-2.970;2023-04-03T08:05:30;7.78;;;3.00;;
77136;SDS011;66102;48.542;-2.970;2023-04-03T08:07:56;11.07;;;3.40;;
77136;SDS011;66102;48.542;-2.970;2023-04-03T08:10:22;8.93;;;2.58;;
77136;SDS011;66102;48.542;-2.970;2023-04-03T08:12:48;11.50;;;3.25;;
77136;SDS011;66102;48.542;-2.970;2023-04-03T08:15:14;9.68;;;3.40;;
77136;SDS011;66102;48.542;-2.970;2023-04-03T08:17:41;11.20;;;3.67;;
77136;SDS011;66102;48.542;-2.970;2023-04-03T08:20:07;9.88;;;3.35;;
77136;SDS011;66102;48.542;-2.970;2023-04-03T08:22:34;7.93;;;3.00;;
77136;SDS011;66102;48.542;-2.970;2023-04-03T08:25:00;7.40;;;2.88;;
77136;SDS011;66102;48.542;-2.970;2023-04-03T08:27:26;9.00;;;3.47;;
77136;SDS011;66102;48.542;-2.970;2023-04-03T08:29:53;8.00;;;3.22;;
77136;SDS011;66102;48.542;-2.970;2023-04-03T08:32:19;10.57;;;3.95;;
77136;SDS011;66102;48.542;-2.970;2023-04-03T08:34:45;14.00;;;4.55;;
77136;SDS011;66102;48.542;-2.970;2023-04-03T08:37:11;7.22;;;4.07;;
77136;SDS011;66102;48.542;-2.970;2023-04-03T08:39:38;8.48;;;3.60;;
77136;SDS011;66102;48.542;-2.970;2023-04-03T08:42:47;10.32;;;4.55;;
77136;SDS011;66102;48.542;-2.970;2023-04-03T08:44:55;8.18;;;5.57;;
77136;SDS011;66102;48.542;-2.970;2023-04-03T08:47:26;9.35;;;4.30;;
77136;SDS011;66102;48.542;-2.970;2023-04-03T08:50:05;11.20;;;4.50;;
77136;SDS011;66102;48.542;-2.970;2023-04-03T08:54:57;13.88;;;4.43;;
77136;SDS011;66102;48.542;-2.970;2023-04-03T08:57:36;12.15;;;5.18;;
77136;SDS011;66102;48.542;-2.970;2023-04-03T09:02:43;10.13;;;4.93;;
77136;SDS011;66102;48.542;-2.970;2023-04-03T09:05:11;12.48;;;4.97;;
77136;SDS011;66102;48.542;-2.970;2023-04-03T09:07:39;8.27;;;4.95;;
77136;SDS011;66102;48.542;-2.970;2023-04-03T09:10:08;13.23;;;5.28;;
77136;SDS011;66102;48.542;-2.970;2023-04-03T09:12:37;13.50;;;4.45;;
77136;SDS011;66102;48.542;-2.970;2023-04-03T09:17:36;10.63;;;5.35;;
77136;SDS011;66102;48.542;-2.970;2023-04-03T09:22:32;13.32;;;5.65;;
77136;SDS011;66102;48.542;-2.970;2023-04-03T09:25:03;8.02;;;4.85;;
77136;SDS011;66102;48.542;-2.970;2023-04-03T09:27:31;13.07;;;4.80;;
77136;SDS011;66102;48.542;-2.970;2023-04-03T09:29:57;10.10;;;5.95;;
77136;SDS011;66102;48.542;-2.970;2023-04-03T09:32:28;10.88;;;6.03;;
77136;SDS011;66102;48.542;-2.970;2023-04-03T09:34:56;12.73;;;5.45;;
77136;SDS011;66102;48.542;-2.970;2023-04-03T09:40:04;12.52;;;5.82;;
77136;SDS011;66102;48.542;-2.970;2023-04-03T09:42:31;10.82;;;5.57;;
77136;SDS011;66102;48.542;-2.970;2023-04-03T09:44:58;10.48;;;4.68;;
77136;SDS011;66102;48.542;-2.970;2023-04-03T09:47:32;10.32;;;4.93;;
77136;SDS011;66102;48.542;-2.970;2023-04-03T09:52:39;10.85;;;6.07;;
77136;SDS011;66102;48.542;-2.970;2023-04-03T09:55:16;13.82;;;5.80;;
77136;SDS011;66102;48.542;-2.970;2023-04-03T09:57:42;9.85;;;5.72;;
77136;SDS011;66102;48.542;-2.970;2023-04-03T10:00:19;11.85;;;5.85;;
77136;SDS011;66102;48.542;-2.970;2023-04-03T10:02:46;12.60;;;5.78;;
77136;SDS011;66102;48.542;-2.970;2023-04-03T10:08:07;13.48;;;5.97;;
77136;SDS011;66102;48.542;-2.970;2023-04-03T10:10:33;12.95;;;6.72;;
77136;SDS011;66102;48.542;-2.970;2023-04-03T10:13:04;11.77;;;6.88;;
77136;SDS011;66102;48.542;-2.970;2023-04-03T10:15:33;13.07;;;6.07;;
77136;SDS011;66102;48.542;-2.970;2023-04-03T10:18:02;14.60;;;7.40;;
77136;SDS011;66102;48.542;-2.970;2023-04-03T10:20:39;11.60;;;6.47;;
77136;SDS011;66102;48.542;-2.970;2023-04-03T10:28:23;11.48;;;7.45;;
77136;SDS011;66102;48.542;-2.970;2023-04-03T10:33:33;13.63;;;6.97;;
77136;SDS011;66102;48.542;-2.970;2023-04-03T10:43:51;14.50;;;8.15;;
77136;SDS011;66102;48.542;-2.970;2023-04-03T10:46:27;16.05;;;7.95;;
77136;SDS011;66102;48.542;-2.970;2023-04-03T11:01:51;14.18;;;9.48;;
77136;SDS011;66102;48.542;-2.970;2023-04-03T11:04:19;13.05;;;8.15;;
77136;SDS011;66102;48.542;-2.970;2023-04-03T11:06:54;13.80;;;9.52;;
77136;SDS011;66102;48.542;-2.970;2023-04-03T11:09:24;17.15;;;9.07;;
77136;SDS011;66102;48.542;-2.970;2023-04-03T11:11:56;14.93;;;9.02;;
77136;SDS011;66102;48.542;-2.970;2023-04-03T11:14:41;17.85;;;8.88;;
77136;SDS011;66102;48.542;-2.970;2023-04-03T11:17:15;15.82;;;8.95;;
77136;SDS011;66102;48.542;-2.970;2023-04-03T11:22:25;16.85;;;9.25;;
77136;SDS011;66102;48.542;-2.970;2023-04-03T11:25:15;12.45;;;8.48;;
77136;SDS011;66102;48.542;-2.970;2023-04-03T11:27:44;15.02;;;9.73;;
77136;SDS011;66102;48.542;-2.970;2023-04-03T11:32:55;17.45;;;8.88;;
77136;SDS011;66102;48.542;-2.970;2023-04-03T11:35:22;16.05;;;9.65;;
77136;SDS011;66102;48.542;-2.970;2023-04-03T11:37:50;16.77;;;10.05;;
77136;SDS011;66102;48.542;-2.970;2023-04-03T11:42:47;14.90;;;10.18;;
77136;SDS011;66102;48.542;-2.970;2023-04-03T11:45:36;16.30;;;9.80;;
77136;SDS011;66102;48.542;-2.970;2023-04-03T11:53:01;15.27;;;9.43;;
77136;SDS011;66102;48.542;-2.970;2023-04-03T12:05:49;14.90;;;9.10;;
77136;SDS011;66102;48.542;-2.970;2023-04-03T12:08:16;15.43;;;8.45;;
77136;SDS011;66102;48.542;-2.970;2023-04-03T12:19:00;15.23;;;9.50;;
77136;SDS011;66102;48.542;-2.970;2023-04-03T12:29:01;17.52;;;10.65;;
77136;SDS011;66102;48.542;-2.970;2023-04-03T12:31:38;15.55;;;9.23;;
77136;SDS011;66102;48.542;-2.970;2023-04-03T12:36:52;16.52;;;10.07;;
77136;SDS011;66102;48.542;-2.970;2023-04-03T12:39:33;16.08;;;9.38;;
77136;SDS011;66102;48.542;-2.970;2023-04-03T12:47:42;16.98;;;9.32;;
77136;SDS011;66102;48.542;-2.970;2023-04-03T12:50:18;16.83;;;10.48;;
77136;SDS011;66102;48.542;-2.970;2023-04-03T12:52:48;17.52;;;10.10;;
77136;SDS011;66102;48.542;-2.970;2023-04-03T12:55:17;18.58;;;10.75;;
77136;SDS011;66102;48.542;-2.970;2023-04-03T12:57:44;17.90;;;10.45;;
77136;SDS011;66102;48.542;-2.970;2023-04-03T13:00:20;17.10;;;10.77;;
77136;SDS011;66102;48.542;-2.970;2023-04-03T13:02:47;18.73;;;10.93;;
77136;SDS011;66102;48.542;-2.970;2023-04-03T13:05:15;18.80;;;10.48;;
77136;SDS011;66102;48.542;-2.970;2023-04-03T13:07:42;19.95;;;11.82;;
77136;SDS011;66102;48.542;-2.970;2023-04-03T13:12:54;18.70;;;11.65;;
77136;SDS011;66102;48.542;-2.970;2023-04-03T13:15:22;18.27;;;10.73;;
77136;SDS011;66102;48.542;-2.970;2023-04-03T13:17:50;18.95;;;11.23;;
77136;SDS011;66102;48.542;-2.970;2023-04-03T13:20:23;22.17;;;11.65;;
77136;SDS011;66102;48.542;-2.970;2023-04-03T13:25:19;18.58;;;10.07;;
77136;SDS011;66102;48.542;-2.970;2023-04-03T13:27:46;21.15;;;12.18;;
77136;SDS011;66102;48.542;-2.970;2023-04-03T13:33:21;20.27;;;12.45;;
77136;SDS011;66102;48.542;-2.970;2023-04-03T13:35:47;21.40;;;12.73;;
77136;SDS011;66102;48.542;-2.970;2023-04-03T13:43:19;21.60;;;12.48;;
77136;SDS011;66102;48.542;-2.970;2023-04-03T13:48:24;19.05;;;11.85;;
77136;SDS011;66102;48.542;-2.970;2023-04-03T13:53:20;19.65;;;12.35;;
77136;SDS011;66102;48.542;-2.970;2023-04-03T13:55:59;20.67;;;13.02;;
77136;SDS011;66102;48.542;-2.970;2023-04-03T13:58:27;21.73;;;11.65;;
77136;SDS011;66102;48.542;-2.970;2023-04-03T14:03:21;20.38;;;11.50;;
77136;SDS011;66102;48.542;-2.970;2023-04-03T14:05:47;20.98;;;13.00;;
77136;SDS011;66102;48.542;-2.970;2023-04-03T14:08:13;20.02;;;12.43;;
77136;SDS011;66102;48.542;-2.970;2023-04-03T14:10:40;21.92;;;13.23;;
77136;SDS011;66102;48.542;-2.970;2023-04-03T14:13:08;20.73;;;11.88;;
77136;SDS011;66102;48.542;-2.970;2023-04-03T14:15:35;20.48;;;12.60;;
77136;SDS011;66102;48.542;-2.970;2023-04-03T14:18:04;19.60;;;12.40;;
77136;SDS011;66102;48.542;-2.970;2023-04-03T14:20:30;22.90;;;11.77;;
77136;SDS011;66102;48.542;-2.970;2023-04-03T14:22:56;19.35;;;11.95;;
77136;SDS011;66102;48.542;-2.970;2023-04-03T14:25:23;20.52;;;12.00;;
77136;SDS011;66102;48.542;-2.970;2023-04-03T14:27:53;22.63;;;12.75;;
77136;SDS011;66102;48.542;-2.970;2023-04-03T14:30:22;20.27;;;13.10;;
77136;SDS011;66102;48.542;-2.970;2023-04-03T14:32:49;22.88;;;13.18;;
77136;SDS011;66102;48.542;-2.970;2023-04-03T14:35:15;20.52;;;12.68;;
77136;SDS011;66102;48.542;-2.970;2023-04-03T14:37:42;21.25;;;12.55;;
77136;SDS011;66102;48.542;-2.970;2023-04-03T14:40:11;21.90;;;13.05;;
77136;SDS011;66102;48.542;-2.970;2023-04-03T14:42:38;20.98;;;11.35;;
77136;SDS011;66102;48.542;-2.970;2023-04-03T14:45:06;22.27;;;13.13;;
77136;SDS011;66102;48.542;-2.970;2023-04-03T14:47:33;17.83;;;11.57;;
77136;SDS011;66102;48.542;-2.970;2023-04-03T14:50:00;17.10;;;11.27;;
77136;SDS011;66102;48.542;-2.970;2023-04-03T14:52:28;18.60;;;11.02;;
77136;SDS011;66102;48.542;-2.970;2023-04-03T14:54:54;21.08;;;11.73;;
77136;SDS011;66102;48.542;-2.970;2023-04-03T14:57:21;22.08;;;12.27;;
77136;SDS011;66102;48.542;-2.970;2023-04-03T14:59:49;18.67;;;11.77;;
77136;SDS011;66102;48.542;-2.970;2023-04-03T15:04:51;18.60;;;11.73;;
77136;SDS011;66102;48.542;-2.970;2023-04-03T15:07:17;18.63;;;11.70;;
77136;SDS011;66102;48.542;-2.970;2023-04-03T15:09:43;20.08;;;10.98;;
77136;SDS011;66102;48.542;-2.970;2023-04-03T15:12:10;17.65;;;11.90;;
77136;SDS011;66102;48.542;-2.970;2023-04-03T15:14:36;17.77;;;11.27;;
77136;SDS011;66102;48.542;-2.970;2023-04-03T15:17:02;24.10;;;12.20;;
77136;SDS011;66102;48.542;-2.970;2023-04-03T15:19:29;18.98;;;10.25;;
77136;SDS011;66102;48.542;-2.970;2023-04-03T15:21:55;18.10;;;10.52;;
77136;SDS011;66102;48.542;-2.970;2023-04-03T15:24:21;19.63;;;10.60;;
77136;SDS011;66102;48.542;-2.970;2023-04-03T15:26:47;17.83;;;10.57;;
77136;SDS011;66102;48.542;-2.970;2023-04-03T15:29:13;17.63;;;11.05;;
77136;SDS011;66102;48.542;-2.970;2023-04-03T15:31:40;16.85;;;11.02;;
77136;SDS011;66102;48.542;-2.970;2023-04-03T15:34:06;19.50;;;11.25;;
77136;SDS011;66102;48.542;-2.970;2023-04-03T15:36:32;15.63;;;10.95;;
77136;SDS011;66102;48.542;-2.970;2023-04-03T15:38:58;16.60;;;9.80;;
77136;SDS011;66102;48.542;-2.970;2023-04-03T15:41:24;15.70;;;10.25;;
77136;SDS011;66102;48.542;-2.970;2023-04-03T15:43:50;18.80;;;12.13;;
77136;SDS011;66102;48.542;-2.970;2023-04-03T15:46:16;17.02;;;11.27;;
77136;SDS011;66102;48.542;-2.970;2023-04-03T15:48:42;17.48;;;10.95;;
77136;SDS011;66102;48.542;-2.970;2023-04-03T15:51:09;17.75;;;10.20;;
77136;SDS011;66102;48.542;-2.970;2023-04-03T15:53:36;17.02;;;10.90;;
77136;SDS011;66102;48.542;-2.970;2023-04-03T15:56:02;15.40;;;9.70;;
77136;SDS011;66102;48.542;-2.970;2023-04-03T15:58:29;14.77;;;9.38;;
77136;SDS011;66102;48.542;-2.970;2023-04-03T16:00:55;15.90;;;10.27;;
77136;SDS011;66102;48.542;-2.970;2023-04-03T16:03:22;16.27;;;10.57;;
77136;SDS011;66102;48.542;-2.970;2023-04-03T16:05:49;17.38;;;10.38;;
77136;SDS011;66102;48.542;-2.970;2023-04-03T16:08:16;16.58;;;10.13;;
77136;SDS011;66102;48.542;-2.970;2023-04-03T16:10:42;15.27;;;10.02;;
77136;SDS011;66102;48.542;-2.970;2023-04-03T16:13:10;17.77;;;10.70;;
77136;SDS011;66102;48.542;-2.970;2023-04-03T16:15:36;15.13;;;9.68;;
77136;SDS011;66102;48.542;-2.970;2023-04-03T16:18:03;16.65;;;9.82;;
77136;SDS011;66102;48.542;-2.970;2023-04-03T16:20:29;14.23;;;9.45;;
77136;SDS011;66102;48.542;-2.970;2023-04-03T16:22:56;15.20;;;9.45;;
77136;SDS011;66102;48.542;-2.970;2023-04-03T16:25:23;16.58;;;9.88;;
77136;SDS011;66102;48.542;-2.970;2023-04-03T16:27:49;16.13;;;9.85;;
77136;SDS011;66102;48.542;-2.970;2023-04-03T16:30:16;14.63;;;8.73;;
77136;SDS011;66102;48.542;-2.970;2023-04-03T16:32:42;14.48;;;8.95;;
77136;SDS011;66102;48.542;-2.970;2023-04-03T16:35:09;18.08;;;8.95;;